sensor_id;sensor_type;location;lat;lon;timestamp;pressure;altitude;pressure_sealevel;temperature;humidity
10079;BME280;5078;42.544;22.966;2024-01-15T00:00:15;93440.41;;;-3.54;69.31
10079;BME280;5078;42.544;22.966;2024-01-15T00:02:44;93436.56;;;-3.63;69.89
10079;BME280;5078;42.544;22.966;2024-01-15T00:05:10;93434.66;;;-3.74;69.87
10079;BME280;5078;42.544;22.966;2024-01-15T00:07:37;93434.03;;;-3.69;70.63
10079;BME280;5078;42.544;22.966;2024-01-15T00:10:04;93435.47;;;-3.93;71.72
10079;BME280;5078;42.544;22.966;2024-01-15T00:12:31;93415.84;;;-4.04;70.94
10079;BME280;5078;42.544;22.966;2024-01-15T00:14:57;93422.19;;;-3.75;70.21
10079;BME280;5078;42.544;22.966;2024-01-15T00:17:24;93435.25;;;-3.92;70.58
10079;BME280;5078;42.544;22.966;2024-01-15T00:19:52;93427.63;;;-3.72;69.67
10079;BME280;5078;42.544;22.966;2024-01-15T00:22:19;93420.50;;;-3.88;69.88
10079;BME280;5078;42.544;22.966;2024-01-15T00:24:46;93413.72;;;-4.07;69.94
10079;BME280;5078;42.544;22.966;2024-01-15T00:27:12;93436.47;;;-4.14;72.21
10079;BME280;5078;42.544;22.966;2024-01-15T00:29:39;93437.06;;;-4.05;71.38
10079;BME280;5078;42.544;22.966;2024-01-15T00:32:06;93436.69;;;-4.15;71.22
10079;BME280;5078;42.544;22.966;2024-01-15T00:34:32;93433.94;;;-4.14;71.28
10079;BME280;5078;42.544;22.966;2024-01-15T00:37:00;93437.28;;;-4.20;72.04
10079;BME280;5078;42.544;22.966;2024-01-15T00:39:28;93435.13;;;-4.03;70.89
10079;BME280;5078;42.544;22.966;2024-01-15T00:41:54;93432.00;;;-4.05;71.15
10079;BME280;5078;42.544;22.966;2024-01-15T00:44:21;93436.88;;;-4.10;70.62
10079;BME280;5078;42.544;22.966;2024-01-15T00:46:48;93426.75;;;-4.10;71.29
10079;BME280;5078;42.544;22.966;2024-01-15T00:49:15;93426.19;;;-4.19;71.36
10079;BME280;5078;42.544;22.966;2024-01-15T00:51:41;93412.94;;;-4.27;71.24
10079;BME280;5078;42.544;22.966;2024-01-15T00:54:10;93429.50;;;-4.18;71.15
10079;BME280;5078;42.544;22.966;2024-01-15T00:56:37;93399.28;;;-4.13;71.91
10079;BME280;5078;42.544;22.966;2024-01-15T00:59:03;93420.91;;;-4.17;72.21
10079;BME280;5078;42.544;22.966;2024-01-15T01:01:30;93420.53;;;-4.21;71.62
10079;BME280;5078;42.544;22.966;2024-01-15T01:03:57;93418.56;;;-4.06;71.23
10079;BME280;5078;42.544;22.966;2024-01-15T01:06:23;93427.31;;;-4.02;71.56
10079;BME280;5078;42.544;22.966;2024-01-15T01:08:50;93427.56;;;-4.56;73.14
10079;BME280;5078;42.544;22.966;2024-01-15T01:11:18;93426.81;;;-4.63;72.85
10079;BME280;5078;42.544;22.966;2024-01-15T01:13:45;93422.69;;;-4.51;73.07
10079;BME280;5078;42.544;22.966;2024-01-15T01:16:12;93424.06;;;-4.42;74.71
10079;BME280;5078;42.544;22.966;2024-01-15T01:18:39;93423.28;;;-4.35;73.23
10079;BME280;5078;42.544;22.966;2024-01-15T01:21:05;93419.38;;;-4.38;72.56
10079;BME280;5078;42.544;22.966;2024-01-15T01:23:32;93421.75;;;-4.63;73.09
10079;BME280;5078;42.544;22.966;2024-01-15T01:25:59;93426.59;;;-4.68;75.10
10079;BME280;5078;42.544;22.966;2024-01-15T01:28:27;93426.19;;;-4.65;73.19
10079;BME280;5078;42.544;22.966;2024-01-15T01:30:54;93425.59;;;-4.93;73.98
10079;BME280;5078;42.544;22.966;2024-01-15T01:33:21;93428.13;;;-4.80;73.50
10079;BME280;5078;42.544;22.966;2024-01-15T01:35:47;93419.03;;;-4.55;73.55
10079;BME280;5078;42.544;22.966;2024-01-15T01:38:14;93411.22;;;-4.60;72.02
10079;BME280;5078;42.544;22.966;2024-01-15T01:40:41;93410.84;;;-4.57;72.04
10079;BME280;5078;42.544;22.966;2024-01-15T01:43:08;93401.50;;;-4.63;71.93
10079;BME280;5078;42.544;22.966;2024-01-15T01:45:37;93390.59;;;-4.89;74.52
10079;BME280;5078;42.544;22.966;2024-01-15T01:48:04;93392.16;;;-4.95;74.13
10079;BME280;5078;42.544;22.966;2024-01-15T01:50:31;93387.50;;;-4.85;73.91
10079;BME280;5078;42.544;22.966;2024-01-15T01:52:58;93384.00;;;-4.64;73.27
10079;BME280;5078;42.544;22.966;2024-01-15T01:55:27;93383.03;;;-4.83;74.04
10079;BME280;5078;42.544;22.966;2024-01-15T01:57:54;93380.72;;;-4.84;74.30
10079;BME280;5078;42.544;22.966;2024-01-15T02:00:22;93363.19;;;-4.99;74.35
10079;BME280;5078;42.544;22.966;2024-01-15T02:02:50;93347.22;;;-4.60;74.57
10079;BME280;5078;42.544;22.966;2024-01-15T02:05:18;93347.75;;;-4.32;74.77
10079;BME280;5078;42.544;22.966;2024-01-15T02:07:45;93360.41;;;-4.32;73.83
10079;BME280;5078;42.544;22.966;2024-01-15T02:10:12;93359.50;;;-4.90;74.45
10079;BME280;5078;42.544;22.966;2024-01-15T02:12:40;93371.72;;;-5.20;76.36
10079;BME280;5078;42.544;22.966;2024-01-15T02:15:07;93364.53;;;-5.36;77.05
10079;BME280;5078;42.544;22.966;2024-01-15T02:17:34;93353.47;;;-5.15;75.63
10079;BME280;5078;42.544;22.966;2024-01-15T02:20:02;93346.66;;;-5.21;75.85
10079;BME280;5078;42.544;22.966;2024-01-15T02:22:29;93354.81;;;-5.06;75.62
10079;BME280;5078;42.544;22.966;2024-01-15T02:24:58;93342.38;;;-5.01;74.30
10079;BME280;5078;42.544;22.966;2024-01-15T02:27:25;93348.59;;;-5.23;75.14
10079;BME280;5078;42.544;22.966;2024-01-15T02:29:51;93341.59;;;-5.08;74.78
10079;BME280;5078;42.544;22.966;2024-01-15T02:32:19;93342.59;;;-4.96;75.35
10079;BME280;5078;42.544;22.966;2024-01-15T02:34:45;93334.44;;;-4.85;75.40
10079;BME280;5078;42.544;22.966;2024-01-15T02:37:12;93329.38;;;-5.05;75.42
10079;BME280;5078;42.544;22.966;2024-01-15T02:39:38;93328.22;;;-4.96;75.40
10079;BME280;5078;42.544;22.966;2024-01-15T02:42:07;93321.59;;;-4.77;75.35
10079;BME280;5078;42.544;22.966;2024-01-15T02:44:33;93334.81;;;-5.01;76.48
10079;BME280;5078;42.544;22.966;2024-01-15T02:47:00;93327.59;;;-4.91;75.61
10079;BME280;5078;42.544;22.966;2024-01-15T02:49:27;93328.19;;;-4.76;74.83
10079;BME280;5078;42.544;22.966;2024-01-15T02:51:53;93331.09;;;-4.72;75.53
10079;BME280;5078;42.544;22.966;2024-01-15T02:54:20;93322.53;;;-4.71;74.58
10079;BME280;5078;42.544;22.966;2024-01-15T02:56:47;93314.75;;;-4.63;74.25
10079;BME280;5078;42.544;22.966;2024-01-15T02:59:15;93289.25;;;-4.62;73.96
10079;BME280;5078;42.544;22.966;2024-01-15T03:01:41;93290.22;;;-4.56;75.28
10079;BME280;5078;42.544;22.966;2024-01-15T03:04:08;93290.03;;;-4.55;75.03
10079;BME280;5078;42.544;22.966;2024-01-15T03:06:35;93291.34;;;-4.39;74.51
10079;BME280;5078;42.544;22.966;2024-01-15T03:09:01;93291.19;;;-4.57;74.68
10079;BME280;5078;42.544;22.966;2024-01-15T03:11:29;93301.75;;;-4.86;75.89
10079;BME280;5078;42.544;22.966;2024-01-15T03:13:55;93296.47;;;-4.65;75.04
10079;BME280;5078;42.544;22.966;2024-01-15T03:16:23;93305.03;;;-4.60;73.94
10079;BME280;5078;42.544;22.966;2024-01-15T03:18:50;93300.38;;;-4.63;74.63
10079;BME280;5078;42.544;22.966;2024-01-15T03:21:17;93292.34;;;-4.53;75.10
10079;BME280;5078;42.544;22.966;2024-01-15T03:23:43;93278.38;;;-4.56;74.25
10079;BME280;5078;42.544;22.966;2024-01-15T03:26:10;93279.13;;;-4.62;74.51
10079;BME280;5078;42.544;22.966;2024-01-15T03:28:37;93279.78;;;-4.86;74.79
10079;BME280;5078;42.544;22.966;2024-01-15T03:31:03;93281.91;;;-4.83;74.69
10079;BME280;5078;42.544;22.966;2024-01-15T03:33:31;93288.75;;;-4.97;75.04
10079;BME280;5078;42.544;22.966;2024-01-15T03:35:58;93281.72;;;-4.75;74.64
10079;BME280;5078;42.544;22.966;2024-01-15T03:38:27;93274.72;;;-4.86;75.04
10079;BME280;5078;42.544;22.966;2024-01-15T03:40:54;93281.72;;;-4.95;75.01
10079;BME280;5078;42.544;22.966;2024-01-15T03:43:21;93281.91;;;-4.83;75.16
10079;BME280;5078;42.544;22.966;2024-01-15T03:45:47;93276.47;;;-4.80;74.95
10079;BME280;5078;42.544;22.966;2024-01-15T03:48:14;93267.56;;;-4.96;74.56
10079;BME280;5078;42.544;22.966;2024-01-15T03:50:42;93253.16;;;-4.88;74.90
10079;BME280;5078;42.544;22.966;2024-01-15T03:53:09;93254.53;;;-4.93;75.33
10079;BME280;5078;42.544;22.966;2024-01-15T03:55:35;93260.34;;;-4.85;76.07
10079;BME280;5078;42.544;22.966;2024-01-15T03:58:02;93242.59;;;-4.72;74.10
10079;BME280;5078;42.544;22.966;2024-01-15T04:00:29;93240.47;;;-4.69;74.54
10079;BME280;5078;42.544;22.966;2024-01-15T04:02:56;93232.09;;;-4.63;74.59
10079;BME280;5078;42.544;22.966;2024-01-15T04:05:22;93235.16;;;-4.54;74.63
10079;BME280;5078;42.544;22.966;2024-01-15T04:07:50;93230.47;;;-4.51;74.83
10079;BME280;5078;42.544;22.966;2024-01-15T04:10:17;93232.84;;;-4.56;73.77
10079;BME280;5078;42.544;22.966;2024-01-15T04:12:44;93238.72;;;-4.75;74.02
10079;BME280;5078;42.544;22.966;2024-01-15T04:15:11;93237.91;;;-4.56;73.91
10079;BME280;5078;42.544;22.966;2024-01-15T04:17:38;93241.75;;;-4.40;73.33
10079;BME280;5078;42.544;22.966;2024-01-15T04:20:05;93244.63;;;-5.01;72.52
10079;BME280;5078;42.544;22.966;2024-01-15T04:22:33;93245.13;;;-4.72;72.58
10079;BME280;5078;42.544;22.966;2024-01-15T04:25:01;93250.81;;;-4.90;71.39
10079;BME280;5078;42.544;22.966;2024-01-15T04:27:28;93258.44;;;-5.03;70.85
10079;BME280;5078;42.544;22.966;2024-01-15T04:29:55;93265.59;;;-5.00;70.83
10079;BME280;5078;42.544;22.966;2024-01-15T04:32:22;93268.34;;;-5.48;73.19
10079;BME280;5078;42.544;22.966;2024-01-15T04:34:48;93272.78;;;-5.56;74.25
10079;BME280;5078;42.544;22.966;2024-01-15T04:37:15;93257.63;;;-5.17;72.95
10079;BME280;5078;42.544;22.966;2024-01-15T04:39:42;93264.25;;;-5.22;72.59
10079;BME280;5078;42.544;22.966;2024-01-15T04:42:10;93255.34;;;-5.25;73.48
10079;BME280;5078;42.544;22.966;2024-01-15T04:44:37;93249.66;;;-5.79;75.65
10079;BME280;5078;42.544;22.966;2024-01-15T04:47:03;93246.78;;;-5.37;76.27
10079;BME280;5078;42.544;22.966;2024-01-15T04:49:30;93249.84;;;-5.02;75.60
10079;BME280;5078;42.544;22.966;2024-01-15T04:51:57;93250.06;;;-4.97;75.00
10079;BME280;5078;42.544;22.966;2024-01-15T04:54:23;93250.84;;;-5.23;77.38
10079;BME280;5078;42.544;22.966;2024-01-15T04:56:50;93257.66;;;-5.56;75.75
10079;BME280;5078;42.544;22.966;2024-01-15T04:59:18;93249.88;;;-5.48;74.40
10079;BME280;5078;42.544;22.966;2024-01-15T05:01:45;93249.88;;;-5.42;74.13
10079;BME280;5078;42.544;22.966;2024-01-15T05:04:12;93246.97;;;-5.32;74.46
10079;BME280;5078;42.544;22.966;2024-01-15T05:06:39;93240.16;;;-5.31;74.74
10079;BME280;5078;42.544;22.966;2024-01-15T05:09:06;93231.41;;;-5.16;73.99
10079;BME280;5078;42.544;22.966;2024-01-15T05:11:33;93238.41;;;-5.24;74.14
10079;BME280;5078;42.544;22.966;2024-01-15T05:13:59;93237.06;;;-5.33;74.08
10079;BME280;5078;42.544;22.966;2024-01-15T05:16:28;93219.38;;;-5.27;74.32
10079;BME280;5078;42.544;22.966;2024-01-15T05:18:54;93221.66;;;-5.06;74.41
10079;BME280;5078;42.544;22.966;2024-01-15T05:21:21;93220.72;;;-5.11;74.32
10079;BME280;5078;42.544;22.966;2024-01-15T05:23:48;93208.88;;;-5.24;74.25
10079;BME280;5078;42.544;22.966;2024-01-15T05:26:14;93211.22;;;-5.81;76.81
10079;BME280;5078;42.544;22.966;2024-01-15T05:28:41;93222.31;;;-5.89;77.24
10079;BME280;5078;42.544;22.966;2024-01-15T05:31:08;93220.94;;;-5.92;77.10
10079;BME280;5078;42.544;22.966;2024-01-15T05:33:37;93224.81;;;-5.76;76.57
10079;BME280;5078;42.544;22.966;2024-01-15T05:36:05;93223.44;;;-5.65;75.94
10079;BME280;5078;42.544;22.966;2024-01-15T05:38:32;93224.03;;;-5.63;74.77
10079;BME280;5078;42.544;22.966;2024-01-15T05:40:58;93229.28;;;-5.71;74.99
10079;BME280;5078;42.544;22.966;2024-01-15T05:43:25;93230.44;;;-5.67;74.45
10079;BME280;5078;42.544;22.966;2024-01-15T05:45:52;93212.59;;;-5.53;73.55
10079;BME280;5078;42.544;22.966;2024-01-15T05:48:18;93212.00;;;-5.74;75.43
10079;BME280;5078;42.544;22.966;2024-01-15T05:50:46;93205.59;;;-5.70;74.49
10079;BME280;5078;42.544;22.966;2024-01-15T05:53:13;93208.72;;;-5.55;74.85
10079;BME280;5078;42.544;22.966;2024-01-15T05:55:40;93210.06;;;-5.59;74.87
10079;BME280;5078;42.544;22.966;2024-01-15T05:58:06;93204.44;;;-5.94;76.26
10079;BME280;5078;42.544;22.966;2024-01-15T06:00:33;93199.19;;;-5.66;76.07
10079;BME280;5078;42.544;22.966;2024-01-15T06:03:01;93207.31;;;-5.31;75.46
10079;BME280;5078;42.544;22.966;2024-01-15T06:05:28;93193.31;;;-5.08;75.48
10079;BME280;5078;42.544;22.966;2024-01-15T06:07:56;93193.16;;;-5.39;76.98
10079;BME280;5078;42.544;22.966;2024-01-15T06:10:22;93199.16;;;-5.20;76.66
10079;BME280;5078;42.544;22.966;2024-01-15T06:12:49;93187.88;;;-5.11;77.40
10079;BME280;5078;42.544;22.966;2024-01-15T06:15:16;93195.84;;;-5.27;77.16
10079;BME280;5078;42.544;22.966;2024-01-15T06:17:42;93200.69;;;-5.13;76.84
10079;BME280;5078;42.544;22.966;2024-01-15T06:20:10;93190.97;;;-4.96;76.65
10079;BME280;5078;42.544;22.966;2024-01-15T06:22:38;93195.56;;;-4.73;75.84
10079;BME280;5078;42.544;22.966;2024-01-15T06:25:07;93195.19;;;-4.77;75.39
10079;BME280;5078;42.544;22.966;2024-01-15T06:27:34;93190.63;;;-4.62;74.38
10079;BME280;5078;42.544;22.966;2024-01-15T06:30:00;93188.50;;;-4.58;74.21
10079;BME280;5078;42.544;22.966;2024-01-15T06:32:27;93191.25;;;-4.66;73.64
10079;BME280;5078;42.544;22.966;2024-01-15T06:34:54;93187.97;;;-4.73;74.85
10079;BME280;5078;42.544;22.966;2024-01-15T06:37:21;93199.03;;;-4.68;74.95
10079;BME280;5078;42.544;22.966;2024-01-15T06:39:47;93194.44;;;-4.97;78.06
10079;BME280;5078;42.544;22.966;2024-01-15T06:42:15;93199.25;;;-4.76;77.66
10079;BME280;5078;42.544;22.966;2024-01-15T06:44:42;93196.59;;;-4.43;76.61
10079;BME280;5078;42.544;22.966;2024-01-15T06:47:09;93202.72;;;-4.19;76.17
10079;BME280;5078;42.544;22.966;2024-01-15T06:49:36;93199.53;;;-3.77;74.02
10079;BME280;5078;42.544;22.966;2024-01-15T06:52:03;93201.22;;;-3.39;74.21
10079;BME280;5078;42.544;22.966;2024-01-15T06:54:29;93188.50;;;-3.08;72.46
10079;BME280;5078;42.544;22.966;2024-01-15T06:56:56;93195.56;;;-2.74;71.34
10079;BME280;5078;42.544;22.966;2024-01-15T06:59:24;93190.59;;;-2.51;70.09
10079;BME280;5078;42.544;22.966;2024-01-15T07:01:51;93189.06;;;-2.33;69.16
10079;BME280;5078;42.544;22.966;2024-01-15T07:04:17;93182.66;;;-2.72;68.79
10079;BME280;5078;42.544;22.966;2024-01-15T07:06:44;93199.44;;;-2.71;69.42
10079;BME280;5078;42.544;22.966;2024-01-15T07:09:11;93189.13;;;-2.76;70.24
10079;BME280;5078;42.544;22.966;2024-01-15T07:11:37;93196.31;;;-2.91;70.78
10079;BME280;5078;42.544;22.966;2024-01-15T07:14:04;93195.56;;;-2.74;70.50
10079;BME280;5078;42.544;22.966;2024-01-15T07:16:32;93196.88;;;-2.89;70.76
10079;BME280;5078;42.544;22.966;2024-01-15T07:18:59;93183.53;;;-3.21;72.14
10079;BME280;5078;42.544;22.966;2024-01-15T07:21:25;93195.56;;;-2.92;72.55
10079;BME280;5078;42.544;22.966;2024-01-15T07:23:52;93188.94;;;-2.75;72.19
10079;BME280;5078;42.544;22.966;2024-01-15T07:26:18;93189.44;;;-2.48;71.18
10079;BME280;5078;42.544;22.966;2024-01-15T07:28:45;93176.75;;;-2.48;71.27
10079;BME280;5078;42.544;22.966;2024-01-15T07:31:12;93173.06;;;-2.34;71.32
10079;BME280;5078;42.544;22.966;2024-01-15T07:33:40;93174.50;;;-2.26;71.15
10079;BME280;5078;42.544;22.966;2024-01-15T07:36:07;93172.03;;;-2.15;70.25
10079;BME280;5078;42.544;22.966;2024-01-15T07:38:34;93169.69;;;-2.16;70.46
10079;BME280;5078;42.544;22.966;2024-01-15T07:41:00;93169.53;;;-2.33;72.01
10079;BME280;5078;42.544;22.966;2024-01-15T07:43:27;93179.75;;;-2.10;71.04
10079;BME280;5078;42.544;22.966;2024-01-15T07:45:54;93179.94;;;-2.23;72.28
10079;BME280;5078;42.544;22.966;2024-01-15T07:48:21;93185.28;;;-2.13;72.13
10079;BME280;5078;42.544;22.966;2024-01-15T07:50:49;93188.94;;;-2.09;72.62
10079;BME280;5078;42.544;22.966;2024-01-15T07:53:15;93184.81;;;-1.80;71.08
10079;BME280;5078;42.544;22.966;2024-01-15T07:55:42;93170.03;;;-1.83;70.64
10079;BME280;5078;42.544;22.966;2024-01-15T07:58:11;93175.38;;;-1.61;69.71
10079;BME280;5078;42.544;22.966;2024-01-15T08:00:38;93176.16;;;-1.61;68.65
10079;BME280;5078;42.544;22.966;2024-01-15T08:03:04;93167.22;;;-1.52;68.47
10079;BME280;5078;42.544;22.966;2024-01-15T08:05:31;93176.34;;;-1.62;69.13
10079;BME280;5078;42.544;22.966;2024-01-15T08:07:59;93189.28;;;-1.64;69.94
10079;BME280;5078;42.544;22.966;2024-01-15T08:10:26;93187.00;;;-1.42;70.97
10079;BME280;5078;42.544;22.966;2024-01-15T08:12:54;93178.50;;;-1.13;68.84
10079;BME280;5078;42.544;22.966;2024-01-15T08:15:21;93173.63;;;-0.91;68.39
10079;BME280;5078;42.544;22.966;2024-01-15T08:17:47;93170.44;;;-0.35;68.14
10079;BME280;5078;42.544;22.966;2024-01-15T08:20:14;93166.13;;;-0.06;67.64
10079;BME280;5078;42.544;22.966;2024-01-15T08:22:41;93171.00;;;0.40;66.15
10079;BME280;5078;42.544;22.966;2024-01-15T08:25:10;93164.25;;;0.34;65.38
10079;BME280;5078;42.544;22.966;2024-01-15T08:27:38;93141.78;;;0.31;64.19
10079;BME280;5078;42.544;22.966;2024-01-15T08:30:06;93158.22;;;0.07;65.70
10079;BME280;5078;42.544;22.966;2024-01-15T08:32:33;93163.88;;;0.26;65.38
10079;BME280;5078;42.544;22.966;2024-01-15T08:35:01;93161.97;;;0.49;65.07
10079;BME280;5078;42.544;22.966;2024-01-15T08:37:29;93167.63;;;0.52;65.61
10079;BME280;5078;42.544;22.966;2024-01-15T08:39:56;93166.91;;;0.39;67.14
10079;BME280;5078;42.544;22.966;2024-01-15T08:42:24;93178.41;;;0.42;70.69
10079;BME280;5078;42.544;22.966;2024-01-15T08:44:51;93174.47;;;0.34;68.90
10079;BME280;5078;42.544;22.966;2024-01-15T08:47:17;93158.78;;;0.42;68.19
10079;BME280;5078;42.544;22.966;2024-01-15T08:49:44;93155.41;;;0.54;67.63
10079;BME280;5078;42.544;22.966;2024-01-15T08:52:11;93157.03;;;0.43;67.86
10079;BME280;5078;42.544;22.966;2024-01-15T08:54:39;93149.28;;;0.38;68.48
10079;BME280;5078;42.544;22.966;2024-01-15T08:57:05;93151.22;;;0.64;67.66
10079;BME280;5078;42.544;22.966;2024-01-15T08:59:33;93158.31;;;0.79;68.66
10079;BME280;5078;42.544;22.966;2024-01-15T09:02:00;93157.28;;;1.13;68.15
10079;BME280;5078;42.544;22.966;2024-01-15T09:04:27;93141.50;;;1.38;68.07
10079;BME280;5078;42.544;22.966;2024-01-15T09:06:53;93132.63;;;1.62;66.25
10079;BME280;5078;42.544;22.966;2024-01-15T09:09:20;93122.47;;;1.94;64.25
10079;BME280;5078;42.544;22.966;2024-01-15T09:11:47;93123.41;;;2.15;62.80
10079;BME280;5078;42.544;22.966;2024-01-15T09:14:14;93114.38;;;2.34;60.71
10079;BME280;5078;42.544;22.966;2024-01-15T09:16:42;93105.53;;;2.47;59.00
10079;BME280;5078;42.544;22.966;2024-01-15T09:19:09;93111.81;;;2.66;58.28
10079;BME280;5078;42.544;22.966;2024-01-15T09:21:38;93117.97;;;2.70;57.86
10079;BME280;5078;42.544;22.966;2024-01-15T09:24:05;93107.00;;;2.69;60.18
10079;BME280;5078;42.544;22.966;2024-01-15T09:26:32;93086.31;;;2.81;59.29
10079;BME280;5078;42.544;22.966;2024-01-15T09:28:58;93092.53;;;2.90;57.12
10079;BME280;5078;42.544;22.966;2024-01-15T09:31:26;93091.94;;;3.25;55.86
10079;BME280;5078;42.544;22.966;2024-01-15T09:33:54;93074.91;;;3.71;52.38
10079;BME280;5078;42.544;22.966;2024-01-15T09:36:23;93065.22;;;4.03;50.86
10079;BME280;5078;42.544;22.966;2024-01-15T09:38:50;93055.50;;;3.95;50.63
10079;BME280;5078;42.544;22.966;2024-01-15T09:41:17;93042.91;;;3.88;50.54
10079;BME280;5078;42.544;22.966;2024-01-15T09:43:45;93044.69;;;3.78;50.63
10079;BME280;5078;42.544;22.966;2024-01-15T09:46:12;93037.75;;;3.73;50.88
10079;BME280;5078;42.544;22.966;2024-01-15T09:48:39;93035.19;;;3.58;51.11
10079;BME280;5078;42.544;22.966;2024-01-15T09:51:07;93037.69;;;3.48;51.19
10079;BME280;5078;42.544;22.966;2024-01-15T09:53:35;93030.81;;;3.59;52.01
10079;BME280;5078;42.544;22.966;2024-01-15T09:56:04;93029.31;;;3.68;51.88
10079;BME280;5078;42.544;22.966;2024-01-15T09:58:32;93021.38;;;3.74;51.22
10079;BME280;5078;42.544;22.966;2024-01-15T10:01:00;93021.13;;;3.86;51.50
10079;BME280;5078;42.544;22.966;2024-01-15T10:03:28;93016.00;;;4.01;50.39
10079;BME280;5078;42.544;22.966;2024-01-15T10:05:56;93011.91;;;4.15;49.70
10079;BME280;5078;42.544;22.966;2024-01-15T10:08:26;93003.16;;;4.21;49.55
10079;BME280;5078;42.544;22.966;2024-01-15T10:10:53;92998.03;;;4.21;49.70
10079;BME280;5078;42.544;22.966;2024-01-15T10:13:21;92992.91;;;4.26;50.73
10079;BME280;5078;42.544;22.966;2024-01-15T10:15:48;92975.97;;;4.30;51.00
10079;BME280;5078;42.544;22.966;2024-01-15T10:18:15;92980.31;;;4.45;50.91
10079;BME280;5078;42.544;22.966;2024-01-15T10:20:42;92982.66;;;4.47;50.31
10079;BME280;5078;42.544;22.966;2024-01-15T10:23:09;92966.19;;;4.48;50.18
10079;BME280;5078;42.544;22.966;2024-01-15T10:25:37;92965.69;;;4.40;51.49
10079;BME280;5078;42.544;22.966;2024-01-15T10:28:04;92960.31;;;4.42;51.31
10079;BME280;5078;42.544;22.966;2024-01-15T10:30:32;92950.56;;;4.49;51.23
10079;BME280;5078;42.544;22.966;2024-01-15T10:32:59;92949.78;;;4.49;51.59
10079;BME280;5078;42.544;22.966;2024-01-15T10:35:29;92958.19;;;4.69;51.16
10079;BME280;5078;42.544;22.966;2024-01-15T10:37:56;92969.94;;;4.90;50.54
10079;BME280;5078;42.544;22.966;2024-01-15T10:40:23;92957.31;;;4.99;50.99
10079;BME280;5078;42.544;22.966;2024-01-15T10:42:51;92949.28;;;5.11;50.43
10079;BME280;5078;42.544;22.966;2024-01-15T10:45:19;92948.53;;;5.10;49.97
10079;BME280;5078;42.544;22.966;2024-01-15T10:47:46;92945.72;;;5.12;50.11
10079;BME280;5078;42.544;22.966;2024-01-15T10:50:14;92928.50;;;5.07;50.93
10079;BME280;5078;42.544;22.966;2024-01-15T10:52:41;92915.47;;;4.99;50.86
10079;BME280;5078;42.544;22.966;2024-01-15T10:55:09;92926.63;;;5.23;51.06
10079;BME280;5078;42.544;22.966;2024-01-15T10:57:37;92927.66;;;5.22;50.65
10079;BME280;5078;42.544;22.966;2024-01-15T11:00:06;92919.66;;;5.28;50.37
10079;BME280;5078;42.544;22.966;2024-01-15T11:02:40;92926.63;;;5.28;50.47
10079;BME280;5078;42.544;22.966;2024-01-15T11:05:07;92914.00;;;5.31;49.62
10079;BME280;5078;42.544;22.966;2024-01-15T11:07:34;92911.94;;;5.33;50.67
10079;BME280;5078;42.544;22.966;2024-01-15T11:10:03;92912.16;;;5.37;50.06
10079;BME280;5078;42.544;22.966;2024-01-15T11:12:31;92896.94;;;5.46;50.30
10079;BME280;5078;42.544;22.966;2024-01-15T11:15:01;92906.44;;;5.50;50.00
10079;BME280;5078;42.544;22.966;2024-01-15T11:17:59;92890.97;;;5.55;49.38
10079;BME280;5078;42.544;22.966;2024-01-15T11:20:26;92890.47;;;5.53;50.17
10079;BME280;5078;42.544;22.966;2024-01-15T11:22:53;92880.88;;;5.64;49.77
10079;BME280;5078;42.544;22.966;2024-01-15T11:25:22;92876.16;;;5.76;49.18
10079;BME280;5078;42.544;22.966;2024-01-15T11:27:50;92869.28;;;5.66;49.57
10079;BME280;5078;42.544;22.966;2024-01-15T11:30:18;92869.22;;;5.76;49.71
10079;BME280;5078;42.544;22.966;2024-01-15T11:32:47;92856.97;;;5.63;49.42
10079;BME280;5078;42.544;22.966;2024-01-15T11:35:14;92869.47;;;5.75;50.07
10079;BME280;5078;42.544;22.966;2024-01-15T11:37:57;92859.88;;;5.85;49.63
10079;BME280;5078;42.544;22.966;2024-01-15T11:40:37;92861.13;;;5.93;50.32
10079;BME280;5078;42.544;22.966;2024-01-15T11:43:05;92870.53;;;6.03;49.87
10079;BME280;5078;42.544;22.966;2024-01-15T11:45:32;92847.66;;;6.01;48.66
10079;BME280;5078;42.544;22.966;2024-01-15T11:48:11;92848.72;;;5.95;48.92
10079;BME280;5078;42.544;22.966;2024-01-15T11:50:40;92844.88;;;5.98;49.31
10079;BME280;5078;42.544;22.966;2024-01-15T11:53:15;92838.38;;;6.05;49.36
10079;BME280;5078;42.544;22.966;2024-01-15T11:55:44;92845.41;;;5.95;49.06
10079;BME280;5078;42.544;22.966;2024-01-15T11:58:11;92844.09;;;5.97;48.50
10079;BME280;5078;42.544;22.966;2024-01-15T12:00:42;92851.03;;;5.97;49.13
10079;BME280;5078;42.544;22.966;2024-01-15T12:03:11;92843.88;;;5.94;49.42
10079;BME280;5078;42.544;22.966;2024-01-15T12:05:38;92831.56;;;5.85;49.84
10079;BME280;5078;42.544;22.966;2024-01-15T12:08:04;92834.94;;;5.81;50.33
10079;BME280;5078;42.544;22.966;2024-01-15T12:10:36;92829.00;;;5.85;50.06
10079;BME280;5078;42.544;22.966;2024-01-15T12:13:05;92804.16;;;5.76;49.83
10079;BME280;5078;42.544;22.966;2024-01-15T12:15:32;92826.41;;;5.91;50.18
10079;BME280;5078;42.544;22.966;2024-01-15T12:18:00;92828.63;;;6.02;50.05
10079;BME280;5078;42.544;22.966;2024-01-15T12:20:29;92816.03;;;6.01;49.68
10079;BME280;5078;42.544;22.966;2024-01-15T12:22:56;92816.13;;;6.14;49.52
10079;BME280;5078;42.544;22.966;2024-01-15T12:25:24;92819.34;;;6.25;49.16
10079;BME280;5078;42.544;22.966;2024-01-15T12:27:52;92816.09;;;6.19;49.55
10079;BME280;5078;42.544;22.966;2024-01-15T12:30:19;92812.75;;;6.19;49.24
10079;BME280;5078;42.544;22.966;2024-01-15T12:32:46;92822.38;;;6.08;49.31
10079;BME280;5078;42.544;22.966;2024-01-15T12:35:14;92809.50;;;6.08;50.13
10079;BME280;5078;42.544;22.966;2024-01-15T12:37:43;92810.84;;;6.06;50.18
10079;BME280;5078;42.544;22.966;2024-01-15T12:40:11;92797.25;;;6.00;50.05
10079;BME280;5078;42.544;22.966;2024-01-15T12:42:40;92802.41;;;6.00;49.95
10079;BME280;5078;42.544;22.966;2024-01-15T12:45:07;92807.78;;;5.99;49.96
10079;BME280;5078;42.544;22.966;2024-01-15T12:47:35;92792.66;;;5.97;50.20
10079;BME280;5078;42.544;22.966;2024-01-15T12:50:06;92787.69;;;6.06;50.24
10079;BME280;5078;42.544;22.966;2024-01-15T12:52:33;92790.03;;;6.02;50.23
10079;BME280;5078;42.544;22.966;2024-01-15T12:55:01;92789.41;;;6.10;50.06
10079;BME280;5078;42.544;22.966;2024-01-15T12:57:28;92792.19;;;6.14;50.15
10079;BME280;5078;42.544;22.966;2024-01-15T12:59:54;92788.59;;;6.15;50.12
10079;BME280;5078;42.544;22.966;2024-01-15T13:02:24;92796.31;;;6.15;50.05
10079;BME280;5078;42.544;22.966;2024-01-15T13:04:51;92791.13;;;6.20;50.02